METAR Data
IDs: Format: Raw Decoded Include TAF

Data at: 0029 UTC 25 Apr 2019

METAR for:KCBF (Council Bluffs Muni, IA, US)
Text:KCBF 250015Z AUTO 17004KT 10SM CLR 21/05 A2976 RMK AO2
Temperature: 21.0°C ( 70°F)
Dewpoint: 5.0°C ( 41°F) [RH = 35%]
Pressure (altimeter):29.76 inches Hg (1007.9 mb)
Winds:from the S (170 degrees) at 5 MPH (4 knots; 2.1 m/s)
Visibility:10 or more sm (16+ km)
Ceiling:at least 12,000 feet AGL
Clouds:sky clear below 12,000 feet AGL
QC Flag:automated observation with no human augmentation